createdAt,value
2019-02-25T00:00:12.389Z,5.33
2019-02-25T00:02:41.581Z,7.60
2019-02-25T00:05:10.705Z,7.00
2019-02-25T00:07:39.879Z,10.05
2019-02-25T00:10:09.401Z,8.93
2019-02-25T00:12:38.548Z,9.50
2019-02-25T00:15:07.718Z,7.67
2019-02-25T00:17:38.319Z,10.72
2019-02-25T00:20:09.800Z,9.50
2019-02-25T00:22:38.968Z,8.93
2019-02-25T00:25:08.718Z,10.03
2019-02-25T00:27:37.883Z,8.63
2019-02-25T00:30:07.100Z,7.22
2019-02-25T00:32:36.498Z,12.18
2019-02-25T00:35:05.738Z,6.00
2019-02-25T00:37:34.846Z,9.58
2019-02-25T00:40:04.620Z,8.75
2019-02-25T00:42:33.757Z,6.78
2019-02-25T00:45:02.880Z,10.45
2019-02-25T00:47:32.002Z,10.28
2019-02-25T00:50:01.164Z,9.95
2019-02-25T00:52:30.273Z,7.83
2019-02-25T00:54:59.402Z,8.90
2019-02-25T00:57:28.558Z,11.15
2019-02-25T00:59:57.689Z,5.60
2019-02-25T01:02:26.807Z,7.37
2019-02-25T01:04:55.954Z,7.90
2019-02-25T01:07:25.115Z,8.13
2019-02-25T01:09:54.261Z,7.85
2019-02-25T01:12:23.381Z,8.50
2019-02-25T01:14:52.526Z,6.97
2019-02-25T01:17:21.701Z,7.17
2019-02-25T01:19:50.851Z,11.75
2019-02-25T01:22:20.002Z,11.22
2019-02-25T01:24:49.181Z,11.75
2019-02-25T01:27:18.324Z,8.23
2019-02-25T01:29:47.438Z,11.48
2019-02-25T01:32:16.560Z,7.60
2019-02-25T01:34:45.708Z,10.48
2019-02-25T01:37:14.837Z,8.40
2019-02-25T01:39:44.011Z,6.87
2019-02-25T01:42:13.166Z,8.20
2019-02-25T01:44:42.306Z,8.08
2019-02-25T01:47:11.443Z,7.75
2019-02-25T01:49:40.588Z,7.47
2019-02-25T01:52:12.192Z,8.48
2019-02-25T01:54:41.368Z,8.05
2019-02-25T01:57:10.474Z,9.95
2019-02-25T01:59:39.643Z,9.45
2019-02-25T02:02:08.742Z,8.38
2019-02-25T02:04:37.893Z,6.70
2019-02-25T02:07:07.153Z,8.45
2019-02-25T02:09:36.267Z,10.32
2019-02-25T02:12:05.453Z,6.78
2019-02-25T02:14:34.579Z,6.95
2019-02-25T02:17:03.736Z,9.55
2019-02-25T02:19:32.879Z,6.45
2019-02-25T02:22:02.016Z,10.75
2019-02-25T02:24:31.165Z,7.83
2019-02-25T02:27:00.315Z,6.70
2019-02-25T02:29:29.444Z,7.80
2019-02-25T02:31:58.592Z,6.75
2019-02-25T02:34:27.713Z,11.00
2019-02-25T02:36:56.840Z,9.33
2019-02-25T02:39:25.985Z,8.33
2019-02-25T02:42:26.121Z,8.05
2019-02-25T02:45:15.582Z,8.23
2019-02-25T02:47:49.078Z,6.90
2019-02-25T02:50:20.933Z,8.38
2019-02-25T02:52:50.037Z,7.45
2019-02-25T02:55:19.354Z,8.65
2019-02-25T02:57:48.495Z,7.33
2019-02-25T03:00:18.870Z,9.73
2019-02-25T03:02:47.995Z,10.93
2019-02-25T03:05:18.461Z,8.58
2019-02-25T03:07:47.574Z,6.47
2019-02-25T03:10:18.265Z,5.47
2019-02-25T03:12:47.590Z,10.05
2019-02-25T03:15:18.489Z,10.90
2019-02-25T03:17:47.647Z,6.45
2019-02-25T03:20:16.859Z,7.92
2019-02-25T03:22:45.991Z,8.55
2019-02-25T03:25:16.349Z,9.28
2019-02-25T03:27:45.588Z,7.33
2019-02-25T03:30:19.442Z,6.80
2019-02-25T03:32:48.577Z,9.73
2019-02-25T03:35:17.771Z,9.08
2019-02-25T03:37:46.937Z,8.93
2019-02-25T03:40:17.654Z,9.40
2019-02-25T03:42:47.826Z,7.20
2019-02-25T03:45:17.798Z,8.98
2019-02-25T03:47:46.936Z,8.10
2019-02-25T03:50:16.073Z,9.30
2019-02-25T03:52:45.186Z,10.32
2019-02-25T03:55:16.141Z,8.60
2019-02-25T03:57:45.270Z,8.10
2019-02-25T04:00:17.095Z,7.28
2019-02-25T04:02:46.268Z,6.58
2019-02-25T04:05:15.441Z,5.78
2019-02-25T04:07:44.610Z,7.92
2019-02-25T04:10:14.040Z,8.93
2019-02-25T04:12:43.179Z,9.40
2019-02-25T04:15:15.082Z,10.20
2019-02-25T04:17:44.232Z,8.73
2019-02-25T04:20:14.381Z,7.42
2019-02-25T04:22:43.534Z,9.43
2019-02-25T04:25:12.622Z,11.25
2019-02-25T04:27:43.893Z,7.22
2019-02-25T04:30:14.527Z,7.30
2019-02-25T04:32:43.685Z,10.35
2019-02-25T04:35:12.970Z,9.35
2019-02-25T04:37:42.194Z,10.93
2019-02-25T04:40:12.331Z,9.00
2019-02-25T04:42:41.504Z,8.30
2019-02-25T04:45:13.125Z,10.75
2019-02-25T04:47:42.259Z,8.55
2019-02-25T04:50:12.007Z,10.25
2019-02-25T04:52:41.128Z,8.05
2019-02-25T04:55:10.678Z,10.68
2019-02-25T04:57:39.869Z,10.30
2019-02-25T05:00:31.428Z,7.05
2019-02-25T05:03:00.558Z,8.10
2019-02-25T05:05:29.725Z,9.98
2019-02-25T05:07:58.896Z,6.97
2019-02-25T05:10:28.140Z,11.65
2019-02-25T05:13:04.711Z,9.68
2019-02-25T05:18:24.193Z,7.33
2019-02-25T05:20:53.334Z,5.55
2019-02-25T05:23:22.495Z,7.53
2019-02-25T05:25:51.626Z,12.80
2019-02-25T05:28:20.771Z,8.75
2019-02-25T05:30:49.907Z,7.85
2019-02-25T05:33:19.072Z,8.35
2019-02-25T05:35:48.182Z,9.10
2019-02-25T05:38:17.346Z,9.38
2019-02-25T05:40:46.464Z,9.35
2019-02-25T05:43:15.620Z,7.62
2019-02-25T05:45:44.755Z,7.08
2019-02-25T05:48:13.911Z,10.58
2019-02-25T05:50:43.041Z,11.10
2019-02-25T05:53:12.158Z,7.45
2019-02-25T05:55:41.311Z,9.85
2019-02-25T05:58:10.460Z,8.28
2019-02-25T06:00:39.663Z,10.30
2019-02-25T06:03:08.794Z,7.08
2019-02-25T06:05:37.964Z,8.05
2019-02-25T06:08:07.111Z,9.53
2019-02-25T06:10:36.262Z,8.35
2019-02-25T06:13:05.423Z,11.78
2019-02-25T06:15:34.590Z,7.53
2019-02-25T06:18:03.746Z,7.83
2019-02-25T06:20:32.883Z,8.55
2019-02-25T06:23:02.034Z,13.38
2019-02-25T06:25:31.203Z,8.90
2019-02-25T06:28:00.318Z,8.60
2019-02-25T06:30:29.464Z,8.73
2019-02-25T06:32:58.651Z,6.45
2019-02-25T06:35:27.796Z,7.37
2019-02-25T06:37:56.966Z,9.65
2019-02-25T06:40:26.107Z,8.18
2019-02-25T06:42:55.235Z,9.08
2019-02-25T06:45:24.418Z,10.80
2019-02-25T06:47:53.617Z,8.38
2019-02-25T06:50:22.775Z,10.43
2019-02-25T06:52:51.953Z,10.48
2019-02-25T06:55:21.143Z,8.80
2019-02-25T06:57:50.323Z,9.88
2019-02-25T07:00:19.925Z,9.55
2019-02-25T07:02:49.017Z,10.38
2019-02-25T07:05:49.229Z,12.65
2019-02-25T07:08:23.182Z,10.78
2019-02-25T07:11:12.716Z,10.23
2019-02-25T07:14:06.731Z,11.60
2019-02-25T07:16:53.372Z,11.22
2019-02-25T07:19:53.537Z,8.75
2019-02-25T07:22:37.912Z,9.83
2019-02-25T07:25:20.428Z,11.12
2019-02-25T07:28:11.588Z,10.08
2019-02-25T07:31:11.914Z,10.28
2019-02-25T07:33:56.730Z,10.48
2019-02-25T07:36:44.849Z,10.70
2019-02-25T07:39:28.004Z,10.85
2019-02-25T07:42:16.114Z,10.50
2019-02-25T07:44:50.101Z,12.18
2019-02-25T07:47:38.598Z,12.80
2019-02-25T07:50:26.824Z,13.58
2019-02-25T07:53:12.747Z,15.55
2019-02-25T07:56:02.532Z,16.52
2019-02-25T07:58:48.113Z,13.28
2019-02-25T08:01:42.177Z,15.05
2019-02-25T08:04:26.745Z,15.90
2019-02-25T08:07:13.292Z,16.57
2019-02-25T08:09:59.419Z,19.10
2019-02-25T08:12:53.601Z,19.35
2019-02-25T08:15:34.127Z,18.10
2019-02-25T08:18:11.150Z,16.87
2019-02-25T08:21:08.074Z,15.58
2019-02-25T08:23:54.097Z,17.20
2019-02-25T08:26:41.505Z,15.30
2019-02-25T08:29:23.920Z,16.85
2019-02-25T08:32:04.764Z,14.43
2019-02-25T08:34:51.326Z,15.38
2019-02-25T08:37:37.532Z,17.40
2019-02-25T08:40:34.788Z,17.20
2019-02-25T08:43:18.757Z,18.45
2019-02-25T08:45:56.404Z,21.40
2019-02-25T08:48:31.136Z,21.25
2019-02-25T08:53:29.879Z,20.15
2019-02-25T08:55:59.089Z,15.85
2019-02-25T08:58:28.204Z,15.90
2019-02-25T09:00:57.357Z,16.10
2019-02-25T09:03:26.509Z,17.37
2019-02-25T09:05:55.659Z,15.53
2019-02-25T09:08:24.817Z,16.73
2019-02-25T09:10:54.022Z,15.68
2019-02-25T09:13:23.849Z,16.45
2019-02-25T09:15:53.210Z,17.12
2019-02-25T09:18:22.383Z,16.97
2019-02-25T09:20:51.525Z,18.80
2019-02-25T09:23:20.684Z,16.87
2019-02-25T09:25:49.849Z,15.70
2019-02-25T09:28:19.003Z,15.10
2019-02-25T09:30:48.144Z,15.38
2019-02-25T09:33:17.315Z,15.20
2019-02-25T09:35:46.492Z,14.20
2019-02-25T09:38:15.626Z,16.15
2019-02-25T09:40:44.829Z,13.72
2019-02-25T09:43:13.986Z,14.68
2019-02-25T09:45:43.122Z,13.95
2019-02-25T09:48:12.257Z,14.38
2019-02-25T09:50:41.394Z,13.90
2019-02-25T09:53:10.575Z,13.78
2019-02-25T09:55:39.758Z,12.20
2019-02-25T09:58:11.457Z,12.10
2019-02-25T10:00:40.685Z,10.65
2019-02-25T10:03:09.911Z,11.22
2019-02-25T10:05:39.182Z,14.05
2019-02-25T10:08:08.763Z,11.48
2019-02-25T10:10:37.891Z,11.15
2019-02-25T10:13:07.065Z,10.03
2019-02-25T10:15:36.215Z,14.73
2019-02-25T10:18:05.349Z,12.53
2019-02-25T10:20:34.485Z,13.68
2019-02-25T10:23:06.469Z,12.15
2019-02-25T10:25:35.657Z,11.93
2019-02-25T10:28:04.787Z,12.10
2019-02-25T10:30:33.953Z,10.15
2019-02-25T10:33:03.107Z,12.07
2019-02-25T10:35:32.323Z,11.83
2019-02-25T10:38:03.118Z,10.13
2019-02-25T10:40:32.376Z,12.50
2019-02-25T10:43:01.550Z,10.08
2019-02-25T10:45:30.690Z,10.03
2019-02-25T10:47:59.848Z,10.38
2019-02-25T10:50:31.147Z,8.93
2019-02-25T10:53:03.460Z,11.15
2019-02-25T10:55:36.901Z,12.68
2019-02-25T10:58:06.598Z,11.60
2019-02-25T11:00:37.795Z,8.58
2019-02-25T11:03:06.707Z,10.38
2019-02-25T11:05:35.858Z,12.00
2019-02-25T11:08:09.530Z,12.00
2019-02-25T11:10:41.495Z,10.77
2019-02-25T11:13:10.621Z,11.88
2019-02-25T11:15:42.415Z,10.15
2019-02-25T11:18:12.233Z,11.55
2019-02-25T11:20:41.527Z,12.70
2019-02-25T11:23:12.819Z,11.53
2019-02-25T11:25:41.711Z,10.88
2019-02-25T11:28:22.624Z,11.88
2019-02-25T11:30:43.169Z,9.70
2019-02-25T11:33:12.637Z,8.80
2019-02-25T11:35:43.315Z,12.10
2019-02-25T11:38:13.007Z,10.45
2019-02-25T11:40:42.176Z,8.83
2019-02-25T11:43:13.252Z,10.85
2019-02-25T11:45:42.243Z,9.95
2019-02-25T11:48:11.422Z,14.98
2019-02-25T11:50:40.692Z,10.58
2019-02-25T11:53:09.835Z,10.10
2019-02-25T11:55:38.973Z,9.38
2019-02-25T11:58:08.122Z,9.90
2019-02-25T12:00:37.263Z,7.75
2019-02-25T12:03:06.495Z,6.45
2019-02-25T12:05:35.692Z,7.28
2019-02-25T12:08:04.852Z,6.60
2019-02-25T12:10:34.040Z,5.72
2019-02-25T12:13:03.176Z,5.60
2019-02-25T12:15:32.312Z,4.85
2019-02-25T12:18:01.464Z,7.55
2019-02-25T12:20:30.575Z,4.95
2019-02-25T12:22:59.758Z,5.62
2019-02-25T12:25:28.894Z,5.12
2019-02-25T12:27:58.024Z,5.05
2019-02-25T12:30:30.250Z,6.37
2019-02-25T12:32:59.421Z,3.33
2019-02-25T12:35:28.594Z,3.80
2019-02-25T12:37:57.773Z,6.67
2019-02-25T12:40:26.929Z,3.30
2019-02-25T12:42:56.208Z,3.87
2019-02-25T12:45:25.771Z,2.17
2019-02-25T12:47:54.978Z,2.70
2019-02-25T12:50:24.143Z,2.47
2019-02-25T12:52:53.317Z,3.92
2019-02-25T12:55:22.589Z,3.98
2019-02-25T12:57:51.758Z,2.47
2019-02-25T13:00:20.906Z,2.90
2019-02-25T13:02:50.049Z,4.12
2019-02-25T13:05:19.223Z,3.52
2019-02-25T13:07:48.450Z,3.30
2019-02-25T13:10:17.834Z,2.75
2019-02-25T13:12:47.084Z,3.17
2019-02-25T13:15:16.223Z,3.70
2019-02-25T13:17:45.378Z,3.80
2019-02-25T13:20:14.668Z,3.37
2019-02-25T13:22:43.925Z,3.50
2019-02-25T13:25:13.354Z,3.15
2019-02-25T13:27:42.515Z,3.40
2019-02-25T13:30:14.341Z,2.50
2019-02-25T13:32:43.562Z,2.90
2019-02-25T13:35:13.157Z,2.62
2019-02-25T13:37:42.304Z,2.33
2019-02-25T13:40:11.697Z,2.15
2019-02-25T13:42:40.843Z,2.02
2019-02-25T13:45:11.195Z,1.60
2019-02-25T13:47:40.369Z,2.30
2019-02-25T13:50:11.118Z,2.67
2019-02-25T13:52:47.968Z,2.27
2019-02-25T13:55:11.302Z,2.08
2019-02-25T13:57:40.461Z,1.70
2019-02-25T14:00:17.420Z,2.35
2019-02-25T14:02:46.755Z,2.42
2019-02-25T14:05:16.023Z,3.10
2019-02-25T14:07:45.347Z,2.77
2019-02-25T14:10:14.531Z,3.05
2019-02-25T14:12:43.672Z,1.72
2019-02-25T14:15:14.727Z,2.58
2019-02-25T14:17:44.067Z,3.95
2019-02-25T14:20:15.489Z,3.05
2019-02-25T14:22:44.677Z,2.70
2019-02-25T14:25:15.009Z,3.45
2019-02-25T14:27:45.485Z,4.42
2019-02-25T14:30:17.626Z,2.70
2019-02-25T14:32:46.823Z,3.50
2019-02-25T14:35:16.623Z,3.77
2019-02-25T14:37:45.918Z,4.50
2019-02-25T14:40:17.137Z,4.65
2019-02-25T14:42:48.827Z,5.75
2019-02-25T14:45:21.612Z,5.12
2019-02-25T14:47:49.724Z,3.45
2019-02-25T14:50:20.550Z,3.47
2019-02-25T14:52:50.078Z,6.85
2019-02-25T14:55:19.184Z,6.03
2019-02-25T14:57:48.462Z,4.40
2019-02-25T15:00:26.177Z,5.15
2019-02-25T15:02:55.104Z,5.08
2019-02-25T15:05:25.587Z,5.20
2019-02-25T15:07:54.773Z,6.03
2019-02-25T15:10:29.253Z,7.62
2019-02-25T15:12:59.079Z,7.58
2019-02-25T15:15:28.585Z,5.65
2019-02-25T15:17:57.956Z,7.40
2019-02-25T15:20:30.038Z,7.95
2019-02-25T15:22:59.233Z,6.70
2019-02-25T15:25:31.161Z,5.37
2019-02-25T15:27:59.241Z,5.37
2019-02-25T15:30:30.687Z,8.73
2019-02-25T15:33:00.409Z,5.70
2019-02-25T15:35:32.332Z,4.30
2019-02-25T15:38:00.815Z,4.90
2019-02-25T15:40:29.980Z,6.97
2019-02-25T15:43:04.107Z,4.83
2019-02-25T15:45:36.104Z,5.60
2019-02-25T15:48:08.273Z,7.85
2019-02-25T15:50:37.624Z,8.88
2019-02-25T15:53:07.450Z,8.40
2019-02-25T15:55:38.810Z,9.68
2019-02-25T15:58:08.768Z,12.65
2019-02-25T16:00:38.730Z,10.75
2019-02-25T16:03:09.076Z,13.72
2019-02-25T16:05:42.045Z,10.08
2019-02-25T16:08:16.231Z,9.13
2019-02-25T16:10:43.089Z,8.75
2019-02-25T16:13:14.265Z,7.87
2019-02-25T16:15:43.302Z,5.95
2019-02-25T16:18:14.307Z,7.17
2019-02-25T16:20:46.116Z,8.30
2019-02-25T16:23:14.345Z,8.53
2019-02-25T16:25:45.603Z,6.03
2019-02-25T16:28:17.301Z,6.17
2019-02-25T16:30:46.889Z,8.28
2019-02-25T16:33:16.708Z,7.25
2019-02-25T16:35:46.277Z,8.95
2019-02-25T16:38:15.670Z,9.38
2019-02-25T16:40:44.839Z,6.25
2019-02-25T16:43:14.246Z,5.87
2019-02-25T16:45:45.251Z,7.00
2019-02-25T16:48:14.413Z,7.20
2019-02-25T16:50:46.130Z,11.20
2019-02-25T16:53:15.478Z,7.75
2019-02-25T16:55:47.057Z,8.60
2019-02-25T16:58:16.410Z,7.55
2019-02-25T17:00:45.640Z,8.23
2019-02-25T17:03:16.103Z,7.65
2019-02-25T17:05:47.795Z,6.22
2019-02-25T17:08:19.386Z,8.93
2019-02-25T17:10:51.235Z,12.30
2019-02-25T17:13:20.281Z,9.45
2019-02-25T17:15:49.383Z,9.13
2019-02-25T17:18:18.543Z,7.33
2019-02-25T17:20:49.870Z,7.20
2019-02-25T17:23:18.630Z,7.42
2019-02-25T17:25:47.806Z,7.53
2019-02-25T17:28:19.000Z,7.28
2019-02-25T17:30:49.645Z,8.15
2019-02-25T17:33:19.125Z,9.53
2019-02-25T17:35:49.960Z,9.38
2019-02-25T17:38:20.921Z,9.53
2019-02-25T17:40:50.362Z,8.33
2019-02-25T17:43:20.213Z,9.33
2019-02-25T17:45:49.650Z,11.83
2019-02-25T17:48:21.243Z,9.73
2019-02-25T17:50:50.148Z,9.88
2019-02-25T17:53:19.303Z,9.83
2019-02-25T17:55:48.959Z,10.20
2019-02-25T17:58:20.320Z,10.88
2019-02-25T18:00:50.456Z,9.83
2019-02-25T18:03:20.351Z,11.48
2019-02-25T18:05:50.737Z,14.45
2019-02-25T18:08:20.055Z,13.58
2019-02-25T18:10:50.078Z,18.02
2019-02-25T18:13:21.944Z,32.65
2019-02-25T18:15:52.024Z,28.25
2019-02-25T18:18:24.408Z,17.27
2019-02-25T18:20:53.711Z,18.00
2019-02-25T18:23:23.068Z,13.43
2019-02-25T18:25:53.636Z,23.18
2019-02-25T18:28:23.249Z,17.07
2019-02-25T18:30:52.805Z,15.90
2019-02-25T18:33:23.114Z,15.08
2019-02-25T18:35:53.147Z,12.18
2019-02-25T18:38:23.295Z,13.35
2019-02-25T18:40:53.418Z,13.48
2019-02-25T18:43:24.305Z,9.90
2019-02-25T18:45:56.121Z,7.92
2019-02-25T18:48:27.359Z,13.62
2019-02-25T18:50:58.935Z,12.50
2019-02-25T18:53:27.886Z,9.78
2019-02-25T18:55:57.470Z,13.18
2019-02-25T18:58:26.675Z,14.65
2019-02-25T19:00:57.189Z,9.73
2019-02-25T19:03:26.991Z,11.88
2019-02-25T19:05:58.009Z,11.80
2019-02-25T19:08:29.131Z,14.93
2019-02-25T19:10:58.659Z,11.70
2019-02-25T19:13:29.826Z,13.05
2019-02-25T19:15:59.836Z,12.55
2019-02-25T19:18:32.232Z,10.15
2019-02-25T19:21:02.075Z,12.65
2019-02-25T19:23:34.977Z,13.58
2019-02-25T19:26:03.052Z,11.60
2019-02-25T19:28:32.230Z,13.95
2019-02-25T19:31:03.574Z,12.40
2019-02-25T19:33:36.336Z,12.68
2019-02-25T19:36:04.851Z,14.10
2019-02-25T19:38:36.370Z,17.67
2019-02-25T19:41:06.074Z,14.05
2019-02-25T19:43:35.378Z,14.40
2019-02-25T19:46:06.326Z,16.65
2019-02-25T19:48:35.779Z,13.43
2019-02-25T19:51:06.263Z,19.30
2019-02-25T19:53:36.692Z,15.38
2019-02-25T19:56:06.644Z,14.28
2019-02-25T19:58:36.512Z,13.38
2019-02-25T20:01:08.978Z,12.50
2019-02-25T20:03:39.912Z,13.08
2019-02-25T20:06:13.876Z,12.90
2019-02-25T20:08:40.017Z,15.90
2019-02-25T20:11:09.735Z,15.98
2019-02-25T20:13:40.547Z,14.28
2019-02-25T20:16:13.415Z,15.35
2019-02-25T20:18:41.980Z,14.03
2019-02-25T20:21:11.298Z,14.75
2019-02-25T20:23:40.579Z,16.23
2019-02-25T20:26:13.312Z,12.20
2019-02-25T20:28:41.750Z,13.62
2019-02-25T20:31:12.737Z,12.13
2019-02-25T20:33:43.190Z,16.12
2019-02-25T20:36:12.361Z,11.83
2019-02-25T20:38:41.552Z,19.85
2019-02-25T20:41:10.957Z,16.67
2019-02-25T20:43:40.209Z,18.45
2019-02-25T20:46:09.425Z,20.45
2019-02-25T20:48:38.816Z,27.77
2019-02-25T20:51:10.207Z,22.37
2019-02-25T20:53:39.047Z,16.55
2019-02-25T20:56:10.984Z,17.00
2019-02-25T20:58:42.509Z,18.85
2019-02-25T21:01:12.082Z,31.95
2019-02-25T21:03:45.807Z,21.00
2019-02-25T21:06:14.517Z,30.95
2019-02-25T21:08:44.502Z,29.98
2019-02-25T21:11:15.611Z,23.07
2019-02-25T21:13:45.027Z,19.10
2019-02-25T21:16:16.179Z,17.45
2019-02-25T21:18:46.582Z,18.57
2019-02-25T21:21:16.297Z,16.70
2019-02-25T21:23:45.643Z,15.93
2019-02-25T21:26:14.776Z,15.23
2019-02-25T21:28:44.053Z,20.27
2019-02-25T21:31:14.561Z,13.48
2019-02-25T21:33:47.322Z,14.13
2019-02-25T21:36:15.111Z,22.52
2019-02-25T21:38:45.377Z,15.48
2019-02-25T21:41:17.127Z,18.48
2019-02-25T21:43:47.236Z,17.67
2019-02-25T21:46:19.780Z,23.47
2019-02-25T21:48:48.600Z,17.55
2019-02-25T21:51:18.780Z,23.27
2019-02-25T21:53:47.948Z,18.90
2019-02-25T21:56:18.899Z,17.70
2019-02-25T21:58:48.705Z,18.98
2019-02-25T22:01:18.886Z,19.07
2019-02-25T22:03:50.209Z,15.85
2019-02-25T22:06:22.018Z,20.82
2019-02-25T22:08:52.130Z,17.27
2019-02-25T22:11:22.152Z,18.35
2019-02-25T22:13:51.361Z,15.13
2019-02-25T22:16:21.861Z,12.95
2019-02-25T22:18:52.137Z,14.98
2019-02-25T22:21:22.460Z,15.45
2019-02-25T22:23:54.020Z,16.70
2019-02-25T22:26:25.184Z,17.50
2019-02-25T22:28:55.281Z,25.08
2019-02-25T22:31:24.335Z,24.77
2019-02-25T22:33:53.511Z,19.17
2019-02-25T22:36:22.667Z,21.90
2019-02-25T22:38:51.909Z,19.45
2019-02-25T22:41:22.809Z,19.45
2019-02-25T22:43:51.933Z,19.80
2019-02-25T22:46:21.115Z,21.70
2019-02-25T22:48:50.257Z,20.88
2019-02-25T22:51:21.898Z,20.75
2019-02-25T22:53:50.265Z,22.32
2019-02-25T22:56:21.471Z,19.62
2019-02-25T22:58:50.309Z,16.73
2019-02-25T23:01:19.542Z,20.52
2019-02-25T23:03:52.164Z,15.78
2019-02-25T23:06:21.352Z,16.35
2019-02-25T23:08:51.128Z,16.37
2019-02-25T23:11:23.880Z,16.70
2019-02-25T23:13:54.847Z,15.85
2019-02-25T23:16:25.472Z,15.72
2019-02-25T23:18:54.565Z,20.48
2019-02-25T23:21:26.334Z,20.77
2019-02-25T23:23:55.859Z,14.65
2019-02-25T23:26:25.478Z,16.67
2019-02-25T23:28:56.000Z,23.02
2019-02-25T23:31:25.497Z,23.22
2019-02-25T23:33:54.643Z,20.90
2019-02-25T23:36:24.780Z,21.12
2019-02-25T23:38:55.360Z,18.55
2019-02-25T23:41:25.519Z,20.77
2019-02-25T23:43:54.639Z,21.87
2019-02-25T23:46:27.322Z,21.10
2019-02-25T23:48:54.645Z,18.70
2019-02-25T23:51:23.813Z,19.85
2019-02-25T23:53:53.710Z,16.85
2019-02-25T23:56:25.603Z,15.53
2019-02-25T23:58:54.664Z,13.65
